Terminal Aerodrome Forecast
Issued by NWS

Home | Current Version | Previous Version | Text Only | Print | Product List | Glossary On
Versions: 1 2 3 4 5 6 7 8 9 10 11 12 13 14 15 16 17 18
298
FTUS45 KRIW 302333
TAFCPR
TAF
KCPR 302333Z 0100/0124 06013KT P6SM VCSH SCT024 OVC050
     FM010400 08008KT P6SM VCSH BKN015
     FM010900 08008KT P6SM VCFG BKN002
     FM011500 08007KT P6SM BKN015
     FM011900 06008KT P6SM SCT035=

USA.gov is the U.S. government's official web portal to all federal, state and local government web resources and services.